SQP212 UKBB-UKLL
Flight info
| Callsign | SQP212 |
|---|---|
| Flight time | N/A |
| Altitude | 260 |
| Route | KAFELR KAFEL GORKU GORK1J |
| Aircraft | B737/M-VGD/A |
Departure
| Time | 2026-05-01 13:25 |
|---|---|
| Airport | Boryspil International Airport (UKBB) |
Arrival
| Time | N/A |
|---|---|
| Airport | Lviv International Airport (UKLL) |
| Time | Latitude | Longitude | Altitude | Speed | Heading |
|---|---|---|---|---|---|
| 2026-05-01 13:18 | 50.32917 | 30.90092 | 410 ft | 0 kts | 182° |
| 2026-05-01 13:18 | 50.32822 | 30.90085 | 409 ft | 25 kts | 183° |
| 2026-05-01 13:18 | 50.32718 | 30.90077 | 407 ft | 33 kts | 182° |
| 2026-05-01 13:19 | 50.32686 | 30.90075 | 407 ft | 32 kts | 182° |
| 2026-05-01 13:20 | 50.32635 | 30.90072 | 406 ft | 31 kts | 182° |
| 2026-05-01 13:21 | 50.32466 | 30.90102 | 406 ft | 15 kts | 143° |
| 2026-05-01 13:21 | 50.32427 | 30.90302 | 406 ft | 15 kts | 66° |
| 2026-05-01 13:21 | 50.32494 | 30.90394 | 406 ft | 15 kts | 18° |
| 2026-05-01 13:21 | 50.32581 | 30.90394 | 406 ft | 10 kts | 358° |
| 2026-05-01 13:22 | 50.32594 | 30.90394 | 406 ft | 0 kts | 0° |
| 2026-05-01 13:25 | 50.32595 | 30.90394 | 406 ft | 0 kts | 0° |
| 2026-05-01 13:25 | 50.32906 | 30.90417 | 410 ft | 98 kts | 3° |
| 2026-05-01 13:25 | 50.33888 | 30.90495 | 478 ft | 177 kts | 4° |
| 2026-05-01 13:25 | 50.35170 | 30.90633 | 1208 ft | 198 kts | 3° |
| 2026-05-01 13:26 | 50.36602 | 30.90715 | 2212 ft | 217 kts | 2° |
| 2026-05-01 13:26 | 50.38166 | 30.90809 | 3051 ft | 236 kts | 2° |
| 2026-05-01 13:26 | 50.39777 | 30.90920 | 4183 ft | 240 kts | 2° |
| 2026-05-01 13:26 | 50.41444 | 30.91038 | 5243 ft | 246 kts | 2° |
| 2026-05-01 13:27 | 50.43156 | 30.91160 | 6272 ft | 251 kts | 2° |
| 2026-05-01 13:27 | 50.44893 | 30.91286 | 7280 ft | 255 kts | 2° |
| 2026-05-01 13:27 | 50.48505 | 30.91547 | 9136 ft | 277 kts | 2° |
| 2026-05-01 13:28 | 50.52437 | 30.91396 | 10817 ft | 305 kts | 342° |
| 2026-05-01 13:28 | 50.54283 | 30.89582 | 11405 ft | 325 kts | 311° |
| 2026-05-01 13:29 | 50.55397 | 30.82895 | 13173 ft | 340 kts | 256° |
| 2026-05-01 13:29 | 50.52651 | 30.76971 | 15057 ft | 348 kts | 224° |
| 2026-05-01 13:30 | 50.51315 | 30.62368 | 18286 ft | 369 kts | 264° |
| 2026-05-01 13:31 | 50.49426 | 30.54943 | 19871 ft | 375 kts | 242° |
| 2026-05-01 13:31 | 50.45652 | 30.43937 | 21949 ft | 388 kts | 242° |
| 2026-05-01 13:32 | 50.43170 | 30.36503 | 23382 ft | 391 kts | 247° |
| 2026-05-01 13:33 | 50.41811 | 30.24494 | 25556 ft | 390 kts | 275° |
| 2026-05-01 13:33 | 50.43012 | 30.16324 | 26006 ft | 384 kts | 288° |
| 2026-05-01 13:34 | 50.44642 | 30.08458 | 26001 ft | 378 kts | 288° |
| 2026-05-01 13:34 | 50.46247 | 30.00565 | 26000 ft | 379 kts | 288° |
| 2026-05-01 13:35 | 50.47832 | 29.92738 | 26001 ft | 380 kts | 288° |
| 2026-05-01 13:35 | 50.48638 | 29.88748 | 26001 ft | 380 kts | 288° |
| 2026-05-01 13:35 | 50.50219 | 29.80895 | 26000 ft | 380 kts | 288° |
| 2026-05-01 13:36 | 50.51014 | 29.76933 | 26000 ft | 380 kts | 288° |
| 2026-05-01 13:36 | 50.51801 | 29.73006 | 26000 ft | 380 kts | 288° |
| 2026-05-01 13:36 | 50.53351 | 29.65243 | 25999 ft | 379 kts | 288° |
| 2026-05-01 13:37 | 50.54138 | 29.61287 | 25999 ft | 379 kts | 288° |
| 2026-05-01 13:37 | 50.54922 | 29.57344 | 26000 ft | 380 kts | 288° |